createdAt,value
2019-01-20T00:00:55.534Z,26.77
2019-01-20T00:03:24.444Z,25.30
2019-01-20T00:05:53.428Z,23.37
2019-01-20T00:08:22.392Z,23.53
2019-01-20T00:10:51.411Z,22.37
2019-01-20T00:13:20.409Z,22.80
2019-01-20T00:15:49.427Z,22.57
2019-01-20T00:18:18.369Z,21.57
2019-01-20T00:20:47.389Z,24.10
2019-01-20T00:23:16.425Z,21.47
2019-01-20T00:25:46.236Z,22.87
2019-01-20T00:28:15.250Z,21.87
2019-01-20T00:30:44.211Z,23.83
2019-01-20T00:33:13.126Z,25.57
2019-01-20T00:35:42.135Z,26.70
2019-01-20T00:38:11.214Z,25.03
2019-01-20T00:40:40.145Z,27.47
2019-01-20T00:43:09.074Z,24.53
2019-01-20T00:45:37.994Z,25.47
2019-01-20T00:48:07.022Z,24.23
2019-01-20T00:50:35.902Z,23.37
2019-01-20T00:53:04.937Z,23.23
2019-01-20T00:55:33.874Z,22.33
2019-01-20T00:58:02.860Z,23.00
2019-01-20T01:00:33.072Z,22.50
2019-01-20T01:03:01.955Z,23.93
2019-01-20T01:05:31.219Z,25.00
2019-01-20T01:08:00.200Z,24.43
2019-01-20T01:10:29.241Z,25.23
2019-01-20T01:12:59.284Z,23.43
2019-01-20T01:15:28.197Z,23.80
2019-01-20T01:17:57.200Z,24.70
2019-01-20T01:20:25.992Z,23.30
2019-01-20T01:22:54.833Z,22.67
2019-01-20T01:25:23.690Z,23.90
2019-01-20T01:27:52.519Z,24.23
2019-01-20T01:30:23.198Z,24.93
2019-01-20T01:32:52.064Z,23.77
2019-01-20T01:35:21.126Z,24.60
2019-01-20T01:37:50.067Z,23.17
2019-01-20T01:40:19.244Z,23.90
2019-01-20T01:42:48.125Z,25.33
2019-01-20T01:45:18.687Z,23.13
2019-01-20T01:47:47.683Z,24.80
2019-01-20T01:50:17.566Z,23.57
2019-01-20T01:52:46.476Z,24.40
2019-01-20T01:55:15.537Z,23.77
2019-01-20T01:57:44.399Z,25.40
2019-01-20T02:00:18.245Z,24.17
2019-01-20T02:02:47.183Z,25.30
2019-01-20T02:05:16.280Z,23.13
2019-01-20T02:07:45.167Z,24.50
2019-01-20T02:13:41.628Z,24.17
2019-01-20T02:16:55.283Z,24.47
2019-01-20T02:19:24.230Z,23.93
2019-01-20T02:21:53.113Z,24.63
2019-01-20T02:24:22.025Z,25.47
2019-01-20T02:26:51.001Z,27.47
2019-01-20T02:29:19.953Z,25.60
2019-01-20T02:31:48.818Z,25.63
2019-01-20T02:34:17.849Z,24.60
2019-01-20T02:36:46.761Z,26.50
2019-01-20T02:39:15.588Z,26.10
2019-01-20T02:41:44.473Z,26.93
2019-01-20T02:44:13.370Z,26.50
2019-01-20T02:46:42.328Z,28.13
2019-01-20T02:49:11.267Z,27.73
2019-01-20T02:51:40.057Z,27.20
2019-01-20T02:54:09.030Z,26.83
2019-01-20T02:56:37.897Z,27.50
2019-01-20T02:59:06.772Z,26.40
2019-01-20T03:01:35.628Z,28.37
2019-01-20T03:04:04.580Z,26.60
2019-01-20T03:06:33.602Z,29.57
2019-01-20T03:09:04.119Z,28.63
2019-01-20T03:11:32.993Z,29.10
2019-01-20T03:14:01.800Z,30.00
2019-01-20T03:16:30.753Z,28.80
2019-01-20T03:18:59.692Z,28.60
2019-01-20T03:21:28.631Z,30.93
2019-01-20T03:23:57.457Z,30.00
2019-01-20T03:26:26.370Z,29.27
2019-01-20T03:28:55.231Z,31.63
2019-01-20T03:31:24.123Z,30.47
2019-01-20T03:33:52.915Z,30.07
2019-01-20T03:36:21.755Z,29.87
2019-01-20T03:38:50.598Z,27.60
2019-01-20T03:41:19.548Z,28.20
2019-01-20T03:43:48.431Z,29.10
2019-01-20T03:46:17.306Z,28.63
2019-01-20T03:48:46.242Z,27.23
2019-01-20T03:51:15.121Z,28.33
2019-01-20T03:53:44.118Z,28.27
2019-01-20T03:56:12.952Z,29.60
2019-01-20T03:58:41.938Z,28.67
2019-01-20T04:01:10.901Z,29.57
2019-01-20T04:03:39.781Z,28.63
2019-01-20T04:06:08.650Z,28.87
2019-01-20T04:08:37.597Z,28.87
2019-01-20T04:11:06.497Z,29.73
2019-01-20T04:13:35.370Z,30.77
2019-01-20T04:16:04.540Z,29.57
2019-01-20T04:18:33.396Z,30.00
2019-01-20T04:21:02.197Z,29.80
2019-01-20T04:23:31.134Z,29.47
2019-01-20T04:25:59.929Z,30.53
2019-01-20T04:28:28.792Z,30.17
2019-01-20T04:30:57.674Z,28.87
2019-01-20T04:33:26.530Z,30.63
2019-01-20T04:35:55.412Z,28.87
2019-01-20T04:38:24.273Z,29.73
2019-01-20T04:40:53.148Z,29.70
2019-01-20T04:43:22.068Z,30.30
2019-01-20T04:45:50.870Z,29.20
2019-01-20T04:48:19.737Z,29.57
2019-01-20T04:50:48.603Z,29.30
2019-01-20T04:53:17.592Z,27.80
2019-01-20T04:55:46.469Z,26.83
2019-01-20T04:58:15.742Z,27.07
2019-01-20T05:00:44.658Z,28.67
2019-01-20T05:03:13.588Z,29.13
2019-01-20T05:05:42.464Z,27.83
2019-01-20T05:08:11.389Z,28.30
2019-01-20T05:10:40.296Z,28.90
2019-01-20T05:13:09.238Z,28.70
2019-01-20T05:15:38.200Z,28.20
2019-01-20T05:18:07.158Z,29.10
2019-01-20T05:20:36.088Z,29.03
2019-01-20T05:23:05.066Z,31.30
2019-01-20T05:25:33.844Z,30.17
2019-01-20T05:28:02.700Z,31.50
2019-01-20T05:30:31.702Z,30.93
2019-01-20T05:33:00.581Z,29.50
2019-01-20T05:35:29.547Z,30.50
2019-01-20T05:37:58.423Z,30.07
2019-01-20T05:40:27.373Z,29.87
2019-01-20T05:42:56.262Z,31.13
2019-01-20T05:45:25.987Z,30.80
2019-01-20T05:47:54.926Z,29.93
2019-01-20T05:50:23.874Z,29.83
2019-01-20T05:52:52.732Z,30.37
2019-01-20T05:55:21.703Z,30.40
2019-01-20T05:57:50.556Z,28.97
2019-01-20T06:00:21.972Z,29.80
2019-01-20T06:02:50.925Z,29.90
2019-01-20T06:05:19.765Z,29.00
2019-01-20T06:07:48.677Z,30.27
2019-01-20T06:10:17.614Z,28.63
2019-01-20T06:12:53.642Z,27.73
2019-01-20T06:15:18.458Z,29.47
2019-01-20T06:17:47.385Z,28.03
2019-01-20T06:20:16.942Z,30.77
2019-01-20T06:22:45.904Z,28.83
2019-01-20T06:25:14.848Z,30.13
2019-01-20T06:27:43.967Z,29.53
2019-01-20T06:30:21.507Z,29.87
2019-01-20T06:32:50.425Z,31.03
2019-01-20T06:35:19.272Z,29.47
2019-01-20T06:37:48.200Z,29.53
2019-01-20T06:40:17.071Z,31.83
2019-01-20T06:42:45.998Z,28.27
2019-01-20T06:45:14.986Z,28.93
2019-01-20T06:47:43.854Z,28.47
2019-01-20T06:50:13.679Z,29.83
2019-01-20T06:52:42.601Z,28.37
2019-01-20T06:55:12.638Z,29.47
2019-01-20T06:57:41.613Z,30.00
2019-01-20T07:00:16.248Z,30.53
2019-01-20T07:02:45.225Z,28.17
2019-01-20T07:05:14.251Z,31.83
2019-01-20T07:07:43.165Z,32.97
2019-01-20T07:10:13.224Z,33.20
2019-01-20T07:12:42.085Z,33.47
2019-01-20T07:15:15.979Z,30.73
2019-01-20T07:17:44.822Z,30.37
2019-01-20T07:22:42.489Z,31.10
2019-01-20T07:25:11.723Z,31.80
2019-01-20T07:27:40.754Z,31.03
2019-01-20T07:30:13.019Z,31.93
2019-01-20T07:32:41.899Z,30.37
2019-01-20T07:35:10.840Z,30.20
2019-01-20T07:37:39.705Z,29.77
2019-01-20T07:40:10.497Z,28.27
2019-01-20T07:42:39.447Z,28.60
2019-01-20T07:45:10.307Z,30.73
2019-01-20T07:47:39.220Z,30.87
2019-01-20T07:50:12.033Z,30.57
2019-01-20T07:52:41.015Z,30.43
2019-01-20T07:55:10.183Z,30.63
2019-01-20T07:57:39.085Z,31.47
2019-01-20T08:00:10.645Z,30.20
2019-01-20T08:02:39.522Z,30.53
2019-01-20T08:05:08.661Z,29.97
2019-01-20T08:07:37.628Z,31.63
2019-01-20T08:10:09.787Z,31.13
2019-01-20T08:12:38.786Z,33.43
2019-01-20T08:15:08.868Z,32.00
2019-01-20T08:17:37.782Z,31.93
2019-01-20T08:20:09.010Z,33.07
2019-01-20T08:22:37.909Z,30.13
2019-01-20T08:25:07.243Z,32.73
2019-01-20T08:27:36.249Z,33.63
2019-01-20T08:30:06.267Z,31.77
2019-01-20T08:32:35.222Z,32.73
2019-01-20T08:35:04.236Z,32.73
2019-01-20T08:37:34.320Z,31.03
2019-01-20T08:40:03.453Z,32.83
2019-01-20T08:42:32.363Z,31.60
2019-01-20T08:45:01.325Z,31.67
2019-01-20T08:47:39.697Z,32.23
2019-01-20T08:50:11.791Z,31.60
2019-01-20T08:52:40.694Z,30.37
2019-01-20T08:55:10.165Z,29.97
2019-01-20T08:57:39.009Z,30.43
2019-01-20T09:00:12.335Z,26.67
2019-01-20T09:02:41.286Z,28.10
2019-01-20T09:05:10.260Z,26.63
2019-01-20T09:07:39.235Z,27.47
2019-01-20T09:10:21.269Z,28.30
2019-01-20T09:12:50.464Z,28.00
2019-01-20T09:15:19.428Z,27.13
2019-01-20T09:17:48.380Z,27.33
2019-01-20T09:20:17.345Z,29.63
2019-01-20T09:22:46.255Z,30.17
2019-01-20T09:25:15.321Z,29.27
2019-01-20T09:27:44.335Z,27.20
2019-01-20T09:30:18.601Z,29.20
2019-01-20T09:32:47.614Z,28.07
2019-01-20T09:35:16.603Z,29.40
2019-01-20T09:37:45.587Z,27.93
2019-01-20T09:40:15.120Z,27.93
2019-01-20T09:42:44.044Z,28.07
2019-01-20T09:45:28.479Z,28.77
2019-01-20T09:47:57.562Z,28.40
2019-01-20T09:50:26.518Z,31.03
2019-01-20T09:52:55.677Z,30.00
2019-01-20T09:55:24.766Z,30.47
2019-01-20T09:57:53.690Z,29.47
2019-01-20T10:00:24.409Z,29.87
2019-01-20T10:02:53.472Z,29.00
2019-01-20T10:05:22.947Z,30.60
2019-01-20T10:07:52.432Z,30.30
2019-01-20T10:10:21.470Z,30.97
2019-01-20T10:12:50.470Z,30.13
2019-01-20T10:15:19.451Z,28.10
2019-01-20T10:17:48.944Z,29.03
2019-01-20T10:20:28.959Z,29.73
2019-01-20T10:22:58.030Z,29.10
2019-01-20T10:25:27.128Z,28.83
2019-01-20T10:27:56.213Z,29.13
2019-01-20T10:30:27.418Z,29.10
2019-01-20T10:32:56.459Z,30.10
2019-01-20T10:35:29.876Z,28.27
2019-01-20T10:38:00.505Z,28.87
2019-01-20T10:40:29.486Z,29.87
2019-01-20T10:42:58.485Z,28.57
2019-01-20T10:45:27.464Z,27.83
2019-01-20T10:47:56.367Z,28.00
2019-01-20T10:50:25.322Z,27.20
2019-01-20T10:52:54.380Z,28.77
2019-01-20T10:55:23.309Z,26.93
2019-01-20T10:57:52.349Z,27.57
2019-01-20T11:00:24.356Z,26.10
2019-01-20T11:02:53.264Z,26.63
2019-01-20T11:05:24.927Z,27.27
2019-01-20T11:07:52.942Z,26.53
2019-01-20T11:10:21.848Z,24.83
2019-01-20T11:12:50.815Z,25.50
2019-01-20T11:15:19.868Z,25.57
2019-01-20T11:17:48.778Z,26.33
2019-01-20T11:20:17.830Z,25.60
2019-01-20T11:22:46.816Z,25.83
2019-01-20T11:25:21.383Z,25.83
2019-01-20T11:27:50.272Z,26.63
2019-01-20T11:30:19.290Z,25.70
2019-01-20T11:32:48.192Z,25.73
2019-01-20T11:35:17.819Z,25.23
2019-01-20T11:37:47.039Z,25.27
2019-01-20T11:40:16.140Z,26.97
2019-01-20T11:42:45.029Z,25.53
2019-01-20T11:45:18.606Z,25.37
2019-01-20T11:47:47.640Z,25.20
2019-01-20T11:50:17.042Z,25.33
2019-01-20T11:52:46.065Z,25.30
2019-01-20T11:55:16.743Z,24.87
2019-01-20T11:57:45.749Z,24.87
2019-01-20T12:00:17.937Z,24.97
2019-01-20T12:02:46.907Z,25.60
2019-01-20T12:05:15.943Z,27.93
2019-01-20T12:07:44.954Z,25.80
2019-01-20T12:10:14.156Z,25.73
2019-01-20T12:12:45.668Z,25.93
2019-01-20T12:15:14.708Z,26.30
2019-01-20T12:17:43.674Z,26.27
2019-01-20T12:20:13.091Z,25.90
2019-01-20T12:22:42.002Z,25.77
2019-01-20T12:25:13.661Z,27.23
2019-01-20T12:27:42.635Z,26.53
2019-01-20T12:30:15.159Z,26.87
2019-01-20T12:32:44.152Z,27.27
2019-01-20T12:35:13.077Z,25.80
2019-01-20T12:37:42.004Z,25.87
2019-01-20T12:40:17.658Z,27.70
2019-01-20T12:42:46.667Z,29.07
2019-01-20T12:45:15.595Z,26.57
2019-01-20T12:47:44.572Z,26.23
2019-01-20T12:50:14.690Z,28.50
2019-01-20T12:52:43.852Z,28.40
2019-01-20T12:55:13.234Z,26.00
2019-01-20T12:57:42.237Z,28.33
2019-01-20T13:00:13.496Z,26.53
2019-01-20T13:02:42.499Z,27.03
2019-01-20T13:05:11.493Z,29.73
2019-01-20T13:07:40.538Z,27.07
2019-01-20T13:10:10.778Z,27.93
2019-01-20T13:12:39.879Z,29.50
2019-01-20T13:15:11.040Z,28.83
2019-01-20T13:17:40.005Z,28.33
2019-01-20T13:20:11.542Z,28.83
2019-01-20T13:22:40.558Z,29.00
2019-01-20T13:25:11.372Z,30.80
2019-01-20T13:27:40.383Z,31.77
2019-01-20T13:30:13.004Z,31.90
2019-01-20T13:32:42.078Z,32.60
2019-01-20T13:35:11.270Z,30.53
2019-01-20T13:37:42.735Z,32.67
2019-01-20T13:40:14.870Z,32.07
2019-01-20T13:42:43.820Z,33.13
2019-01-20T13:45:13.132Z,32.77
2019-01-20T13:47:48.515Z,30.40
2019-01-20T13:50:15.383Z,30.17
2019-01-20T13:52:44.311Z,28.63
2019-01-20T13:55:13.612Z,29.00
2019-01-20T13:57:42.674Z,29.87
2019-01-20T14:00:21.626Z,28.33
2019-01-20T14:02:50.591Z,28.53
2019-01-20T14:05:19.614Z,27.67
2019-01-20T14:07:48.663Z,27.63
2019-01-20T14:10:18.661Z,27.77
2019-01-20T14:12:47.680Z,30.60
2019-01-20T14:15:16.593Z,29.07
2019-01-20T14:17:45.620Z,28.57
2019-01-20T14:20:16.962Z,29.67
2019-01-20T14:22:46.121Z,30.90
2019-01-20T14:25:16.966Z,29.17
2019-01-20T14:27:46.015Z,30.63
2019-01-20T14:30:20.338Z,35.67
2019-01-20T14:32:49.270Z,32.83
2019-01-20T14:35:18.221Z,32.17
2019-01-20T14:37:47.218Z,31.53
2019-01-20T14:40:16.506Z,30.37
2019-01-20T14:42:45.533Z,30.67
2019-01-20T14:45:15.053Z,29.87
2019-01-20T14:47:44.109Z,29.27
2019-01-20T14:50:16.487Z,27.43
2019-01-20T14:52:45.502Z,28.27
2019-01-20T14:55:14.638Z,29.27
2019-01-20T14:57:43.615Z,29.13
2019-01-20T15:00:16.182Z,29.23
2019-01-20T15:02:45.194Z,30.37
2019-01-20T15:05:14.283Z,30.33
2019-01-20T15:07:43.228Z,30.93
2019-01-20T15:10:12.290Z,31.27
2019-01-20T15:12:41.270Z,30.70
2019-01-20T15:15:12.301Z,28.63
2019-01-20T15:17:41.270Z,30.63
2019-01-20T15:20:10.807Z,31.83
2019-01-20T15:22:39.912Z,31.20
2019-01-20T15:25:10.239Z,33.93
2019-01-20T15:27:39.148Z,40.27
2019-01-20T15:30:12.916Z,36.13
2019-01-20T15:32:41.963Z,35.27
2019-01-20T15:35:10.961Z,33.40
2019-01-20T15:37:40.096Z,32.63
2019-01-20T15:40:10.268Z,34.47
2019-01-20T15:42:39.269Z,35.00
2019-01-20T15:45:16.389Z,35.50
2019-01-20T15:47:40.837Z,31.57
2019-01-20T15:50:12.852Z,31.83
2019-01-20T15:52:41.741Z,32.40
2019-01-20T15:55:10.910Z,31.80
2019-01-20T15:57:39.925Z,34.40
2019-01-20T16:00:11.871Z,34.10
2019-01-20T16:02:40.891Z,34.80
2019-01-20T16:05:09.961Z,31.73
2019-01-20T16:07:38.983Z,32.70
2019-01-20T16:10:09.234Z,33.03
2019-01-20T16:12:38.321Z,31.13
2019-01-20T16:15:14.959Z,36.93
2019-01-20T16:17:44.599Z,34.17
2019-01-20T16:20:14.291Z,31.70
2019-01-20T16:22:43.384Z,39.00
2019-01-20T16:25:17.677Z,42.97
2019-01-20T16:27:46.698Z,35.53
2019-01-20T16:30:21.312Z,34.77
2019-01-20T16:32:50.330Z,36.90
2019-01-20T16:35:19.223Z,37.17
2019-01-20T16:37:48.205Z,34.17
2019-01-20T16:40:18.970Z,36.70
2019-01-20T16:42:47.962Z,35.97
2019-01-20T16:45:18.856Z,33.70
2019-01-20T16:47:47.849Z,41.83
2019-01-20T16:50:19.311Z,34.47
2019-01-20T16:52:48.261Z,39.30
2019-01-20T16:55:17.265Z,42.20
2019-01-20T16:57:46.286Z,38.37
2019-01-20T17:00:21.101Z,37.00
2019-01-20T17:02:50.126Z,40.67
2019-01-20T17:05:19.124Z,38.47
2019-01-20T17:07:48.137Z,32.43
2019-01-20T17:10:19.986Z,35.53
2019-01-20T17:12:49.194Z,34.37
2019-01-20T17:15:20.626Z,41.03
2019-01-20T17:17:49.600Z,33.47
2019-01-20T17:20:18.936Z,35.40
2019-01-20T17:22:48.175Z,37.73
2019-01-20T17:25:18.494Z,34.30
2019-01-20T17:27:47.552Z,40.40
2019-01-20T17:30:18.832Z,39.27
2019-01-20T17:32:47.886Z,42.73
2019-01-20T17:35:16.941Z,48.17
2019-01-20T17:37:45.951Z,45.30
2019-01-20T17:40:20.137Z,37.93
2019-01-20T17:42:49.134Z,37.80
2019-01-20T17:45:20.883Z,38.77
2019-01-20T17:47:49.853Z,37.57
2019-01-20T17:50:27.354Z,38.80
2019-01-20T17:52:56.476Z,36.53
2019-01-20T17:55:25.896Z,36.40
2019-01-20T17:57:54.827Z,33.93
2019-01-20T18:00:30.014Z,33.93
2019-01-20T18:02:59.473Z,36.63
2019-01-20T18:05:29.188Z,36.00
2019-01-20T18:07:58.861Z,37.83
2019-01-20T18:10:28.105Z,38.50
2019-01-20T18:12:58.044Z,41.33
2019-01-20T18:15:27.276Z,43.00
2019-01-20T18:17:56.884Z,37.93
2019-01-20T18:20:28.173Z,49.63
2019-01-20T18:22:57.848Z,49.67
2019-01-20T18:25:27.243Z,44.37
2019-01-20T18:27:56.769Z,42.43
2019-01-20T18:30:29.670Z,36.80
2019-01-20T18:32:59.269Z,38.23
2019-01-20T18:35:29.139Z,36.70
2019-01-20T18:37:58.612Z,37.53
2019-01-20T18:40:28.542Z,38.73
2019-01-20T18:42:57.775Z,44.67
2019-01-20T18:45:29.240Z,43.27
2019-01-20T18:47:58.556Z,41.73
2019-01-20T18:50:42.919Z,37.60
2019-01-20T18:53:11.999Z,36.50
2019-01-20T18:55:41.321Z,37.83
2019-01-20T18:58:10.674Z,37.40
2019-01-20T19:00:45.679Z,39.43
2019-01-20T19:03:14.871Z,40.03
2019-01-20T19:05:44.067Z,37.13
2019-01-20T19:08:13.392Z,35.00
2019-01-20T19:10:43.118Z,34.90
2019-01-20T19:13:12.319Z,36.20
2019-01-20T19:16:25.787Z,35.83
2019-01-20T19:18:55.136Z,33.00
2019-01-20T19:21:24.148Z,36.93
2019-01-20T19:23:53.245Z,33.50
2019-01-20T19:26:22.686Z,34.33
2019-01-20T19:28:52.361Z,31.87
2019-01-20T19:31:47.777Z,34.93
2019-01-20T19:34:56.637Z,36.97
2019-01-20T19:40:19.165Z,35.40
2019-01-20T19:43:07.347Z,34.93
2019-01-20T19:49:04.336Z,35.60
2019-01-20T19:54:32.603Z,33.60
2019-01-20T19:57:02.202Z,41.60
2019-01-20T19:59:31.552Z,40.17
2019-01-20T20:02:00.666Z,39.27
2019-01-20T20:04:30.027Z,37.30
2019-01-20T20:06:59.294Z,36.50
2019-01-20T20:09:28.369Z,34.70
2019-01-20T20:11:57.469Z,34.53
2019-01-20T20:14:26.552Z,34.50
2019-01-20T20:16:55.855Z,38.30
2019-01-20T20:19:25.312Z,36.30
2019-01-20T20:21:54.432Z,34.43
2019-01-20T20:24:25.448Z,36.70
2019-01-20T20:26:54.798Z,33.93
2019-01-20T20:29:23.917Z,35.67
2019-01-20T20:31:53.085Z,36.77
2019-01-20T20:34:22.236Z,38.07
2019-01-20T20:36:51.817Z,35.87
2019-01-20T20:39:22.170Z,36.97
2019-01-20T20:41:51.953Z,37.30
2019-01-20T20:44:21.643Z,40.50
2019-01-20T20:46:51.071Z,37.87
2019-01-20T20:49:20.347Z,36.37
2019-01-20T20:51:49.830Z,37.20
2019-01-20T20:54:19.447Z,40.63
2019-01-20T20:56:49.937Z,38.60
2019-01-20T20:59:19.942Z,41.63
2019-01-20T21:01:49.411Z,41.50
2019-01-20T21:04:18.656Z,39.27
2019-01-20T21:06:48.238Z,41.33
2019-01-20T21:09:17.451Z,40.60
2019-01-20T21:11:46.520Z,39.47
2019-01-20T21:14:15.662Z,37.23
2019-01-20T21:16:45.116Z,38.90
2019-01-20T21:19:14.222Z,37.13
2019-01-20T21:21:43.297Z,38.60
2019-01-20T21:24:12.539Z,37.13
2019-01-20T21:26:44.534Z,38.03
2019-01-20T21:29:12.425Z,40.57
2019-01-20T21:31:41.498Z,39.87
2019-01-20T21:34:10.839Z,40.87
2019-01-20T21:36:40.077Z,40.30
2019-01-20T21:39:09.985Z,38.27
2019-01-20T21:41:38.998Z,40.93
2019-01-20T21:44:07.974Z,38.50
2019-01-20T21:46:37.123Z,38.53
2019-01-20T21:49:06.134Z,41.03
2019-01-20T21:51:35.204Z,38.23
2019-01-20T21:54:04.199Z,40.93
2019-01-20T21:56:33.273Z,39.07
2019-01-20T21:59:02.317Z,38.23
2019-01-20T22:01:31.590Z,40.03
2019-01-20T22:04:00.825Z,41.80
2019-01-20T22:06:29.882Z,39.27
2019-01-20T22:08:59.031Z,36.33
2019-01-20T22:11:28.078Z,36.53
2019-01-20T22:13:57.370Z,36.00
2019-01-20T22:16:27.172Z,38.73
2019-01-20T22:18:56.619Z,41.17
2019-01-20T22:21:25.594Z,40.23
2019-01-20T22:23:54.630Z,36.77
2019-01-20T22:26:24.552Z,38.07
2019-01-20T22:28:53.613Z,38.57
2019-01-20T22:31:23.181Z,38.63
2019-01-20T22:33:52.503Z,39.17
2019-01-20T22:36:21.576Z,39.57
2019-01-20T22:38:50.650Z,41.03
2019-01-20T22:41:19.631Z,42.00
2019-01-20T22:43:48.674Z,41.13
2019-01-20T22:46:17.743Z,40.00
2019-01-20T22:48:46.708Z,37.23
2019-01-20T22:51:15.792Z,37.20
2019-01-20T22:53:44.813Z,34.50
2019-01-20T22:56:13.839Z,36.23
2019-01-20T22:58:43.232Z,36.57
2019-01-20T23:01:20.436Z,36.23
2019-01-20T23:03:50.020Z,37.93
2019-01-20T23:06:19.096Z,39.17
2019-01-20T23:08:48.109Z,37.33
2019-01-20T23:11:17.115Z,37.27
2019-01-20T23:13:46.158Z,37.93
2019-01-20T23:16:15.242Z,39.00
2019-01-20T23:18:44.420Z,36.57
2019-01-20T23:21:13.513Z,38.03
2019-01-20T23:23:42.390Z,36.20
2019-01-20T23:26:11.891Z,35.77
2019-01-20T23:28:40.915Z,35.07
2019-01-20T23:31:10.043Z,36.80
2019-01-20T23:33:39.644Z,35.17
2019-01-20T23:36:08.653Z,35.03
2019-01-20T23:38:37.597Z,36.60
2019-01-20T23:41:06.573Z,34.60
2019-01-20T23:43:35.478Z,41.43
2019-01-20T23:46:04.453Z,38.07
2019-01-20T23:48:33.601Z,35.23
2019-01-20T23:51:02.519Z,35.30
2019-01-20T23:53:31.443Z,37.83
2019-01-20T23:56:00.758Z,38.67
2019-01-20T23:58:30.248Z,38.30
